Time;durP1;ratioP1;P1;durP2;ratioP2;P2;SDS_P1;SDS_P2;PMS_P1;PMS_P2;Temp;Humidity;BMP_temperature;BMP_pressure;BME280_temperature;BME280_humidity;BME280_pressure;Samples;Min_cycle;Max_cycle;Signal;HPM_P1;HPM_P2
2024/02/20 00:00:23;;;;;;;8.13;3.85;;;;;;;9.27;72.68;100623.03;5058253;27;96770;-82
2024/02/20 00:02:49;;;;;;;5.57;3.88;;;;;;;9.38;72.59;100620.19;5079112;27;96913;-81
2024/02/20 00:05:15;;;;;;;6.72;4.35;;;;;;;9.43;72.57;100620.94;5039113;27;101725;-82
2024/02/20 00:07:40;;;;;;;7.57;3.20;;;;;;;9.51;72.16;100609.38;5047748;27;101326;-83
2024/02/20 00:10:06;;;;;;;3.97;2.80;;;;;;;9.54;72.22;100618.91;5062652;27;97073;-81
2024/02/20 00:12:33;;;;;;;4.55;2.70;;;;;;;9.62;72.00;100621.31;5063970;27;97283;-82
2024/02/20 00:15:00;;;;;;;4.13;2.85;;;;;;;9.64;71.99;100619.53;5060037;27;97961;-82
2024/02/20 00:17:27;;;;;;;3.97;2.78;;;;;;;9.66;72.27;100609.88;5043415;27;101670;-81
2024/02/20 00:19:53;;;;;;;4.20;2.65;;;;;;;9.73;72.30;100614.91;5079992;27;96767;-82
2024/02/20 00:22:18;;;;;;;5.28;2.60;;;;;;;9.77;72.36;100613.06;5059277;27;96808;-82
2024/02/20 00:24:44;;;;;;;5.43;3.08;;;;;;;9.74;72.43;100614.03;5058731;27;102223;-82
2024/02/20 00:27:09;;;;;;;5.65;2.75;;;;;;;9.79;72.63;100618.28;5075801;27;97919;-82
2024/02/20 00:29:35;;;;;;;6.75;3.67;;;;;;;9.85;72.58;100605.84;5078911;27;97319;-82
2024/02/20 00:32:00;;;;;;;3.38;2.47;;;;;;;9.86;72.33;100606.72;5062771;27;96908;-82
2024/02/20 00:34:26;;;;;;;4.70;3.10;;;;;;;9.91;72.48;100607.44;5058529;27;101251;-81
2024/02/20 00:36:52;;;;;;;4.70;3.50;;;;;;;9.93;72.33;100613.53;5073208;27;100095;-82
2024/02/20 00:39:18;;;;;;;4.50;3.33;;;;;;;9.95;72.41;100617.84;5051078;27;96817;-84
2024/02/20 00:41:43;;;;;;;4.70;3.30;;;;;;;9.95;72.50;100615.22;5044772;27;96804;-81
2024/02/20 00:44:10;;;;;;;7.20;3.47;;;;;;;9.97;72.23;100617.78;5058213;27;102149;-82
2024/02/20 00:46:37;;;;;;;3.67;3.05;;;;;;;9.91;72.78;100600.44;5076004;27;98038;-82
2024/02/20 00:49:02;;;;;;;6.55;3.83;;;;;;;9.91;73.07;100596.97;5061459;27;97072;-82
2024/02/20 00:51:28;;;;;;;5.55;3.60;;;;;;;9.90;72.87;100603.97;5051183;27;96791;-82
2024/02/20 00:53:54;;;;;;;6.25;3.97;;;;;;;9.89;73.04;100599.66;5041453;27;101083;-82
2024/02/20 00:56:20;;;;;;;6.93;4.20;;;;;;;9.94;72.71;100607.38;5067384;27;101473;-82
2024/02/20 00:58:46;;;;;;;7.43;3.72;;;;;;;9.78;73.15;100596.44;5059359;27;96766;-84
2024/02/20 01:01:12;;;;;;;5.05;3.60;;;;;;;9.75;73.30;100594.75;5051269;27;96978;-83
2024/02/20 01:03:38;;;;;;;4.63;3.55;;;;;;;9.82;72.90;100590.19;5060011;27;101758;-83
2024/02/20 01:06:06;;;;;;;5.32;3.65;;;;;;;9.86;73.06;100596.22;5058791;27;97620;-81
2024/02/20 01:08:32;;;;;;;7.93;3.72;;;;;;;9.89;72.75;100593.50;5087092;27;96730;-81
2024/02/20 01:10:58;;;;;;;5.20;3.45;;;;;;;9.92;72.74;100594.31;5061936;27;97597;-81
2024/02/20 01:13:23;;;;;;;5.70;4.03;;;;;;;9.89;72.70;100590.88;5040450;27;99667;-83
2024/02/20 01:15:49;;;;;;;7.15;4.03;;;;;;;9.91;72.74;100591.72;5053861;27;101164;-82
2024/02/20 01:18:14;;;;;;;6.50;3.70;;;;;;;9.90;72.97;100580.38;5061126;27;96820;-81
2024/02/20 01:20:40;;;;;;;8.18;3.70;;;;;;;9.87;72.70;100587.47;5044383;27;96937;-82
2024/02/20 01:23:06;;;;;;;6.47;4.25;;;;;;;9.89;72.66;100589.16;5044255;27;100966;-82
2024/02/20 01:25:32;;;;;;;9.13;5.60;;;;;;;9.98;72.12;100602.00;5041165;27;101148;-82
2024/02/20 01:27:58;;;;;;;14.65;8.10;;;;;;;9.94;72.43;100583.75;5059246;27;97385;-82
2024/02/20 01:30:23;;;;;;;13.82;6.88;;;;;;;9.93;72.53;100590.78;5044291;27;96877;-82
2024/02/20 01:32:49;;;;;;;7.35;5.28;;;;;;;9.95;72.14;100588.97;5060763;27;101669;-81
2024/02/20 01:35:14;;;;;;;9.90;4.97;;;;;;;9.98;71.65;100583.66;5075160;27;97625;-81
2024/02/20 01:37:43;;;;;;;7.38;4.38;;;;;;;9.91;72.18;100586.47;5058351;27;96686;-82
2024/02/20 01:40:09;;;;;;;7.25;4.40;;;;;;;9.96;72.37;100582.81;5072219;27;97125;-82
2024/02/20 01:42:37;;;;;;;7.70;4.47;;;;;;;9.96;72.26;100581.97;5040303;27;101927;-82
2024/02/20 01:45:03;;;;;;;8.73;4.68;;;;;;;9.97;71.96;100568.81;5089267;27;98016;-82
2024/02/20 01:47:29;;;;;;;7.57;4.35;;;;;;;9.78;72.43;100583.34;5063285;27;96793;-83
2024/02/20 01:49:56;;;;;;;8.32;4.93;;;;;;;9.71;72.60;100580.00;5077945;27;96835;-82
2024/02/20 01:52:21;;;;;;;7.40;4.72;;;;;;;9.77;71.97;100580.72;5057750;27;101208;-82
2024/02/20 01:54:47;;;;;;;5.43;4.20;;;;;;;9.70;72.39;100578.28;5050535;27;100818;-82
2024/02/20 01:57:13;;;;;;;6.93;4.90;;;;;;;9.81;72.22;100582.41;5061040;27;96908;-82
2024/02/20 01:59:38;;;;;;;9.23;5.15;;;;;;;9.74;71.98;100576.44;5058225;27;96766;-84
2024/02/20 02:02:06;;;;;;;9.20;5.78;;;;;;;9.84;71.82;100577.06;5051885;27;97730;-83
2024/02/20 02:04:31;;;;;;;12.88;6.05;;;;;;;9.86;71.66;100581.38;5061193;27;102033;-82
2024/02/20 02:06:57;;;;;;;11.20;6.03;;;;;;;9.70;71.81;100567.78;5078763;27;96759;-82
2024/02/20 02:09:24;;;;;;;10.95;6.63;;;;;;;9.71;71.47;100569.50;5042564;27;97022;-82
2024/02/20 02:11:50;;;;;;;16.38;6.43;;;;;;;9.81;71.93;100574.53;5057814;27;100145;-83
2024/02/20 02:14:15;;;;;;;12.65;5.97;;;;;;;9.83;71.47;100570.97;5048032;27;101584;-83
2024/02/20 02:16:44;;;;;;;11.23;6.57;;;;;;;9.68;71.70;100574.81;5059710;27;96767;-84
2024/02/20 02:19:10;;;;;;;10.77;6.20;;;;;;;9.65;72.30;100569.66;5057982;27;97008;-90
2024/02/20 02:21:36;;;;;;;14.20;5.97;;;;;;;9.64;72.47;100572.34;5039673;27;101560;-82
2024/02/20 02:24:02;;;;;;;8.30;4.95;;;;;;;9.67;72.22;100573.13;5075878;27;101582;-82
2024/02/20 02:26:28;;;;;;;7.72;5.15;;;;;;;9.72;71.89;100567.78;5060910;27;97270;-82
2024/02/20 02:28:54;;;;;;;10.63;6.40;;;;;;;9.75;72.09;100571.16;5064171;27;96870;-82
2024/02/20 02:31:20;;;;;;;7.75;5.00;;;;;;;9.73;72.26;100572.09;5046946;27;101746;-82
2024/02/20 02:33:46;;;;;;;11.55;7.40;;;;;;;9.74;71.90;100577.31;5081535;27;98300;-81
2024/02/20 02:36:12;;;;;;;10.23;6.05;;;;;;;9.68;72.00;100566.97;5065117;27;97977;-82
2024/02/20 02:38:38;;;;;;;9.48;5.72;;;;;;;9.74;72.04;100568.56;5064694;27;96889;-82
2024/02/20 02:41:05;;;;;;;12.18;6.55;;;;;;;9.65;72.13;100566.19;5060926;27;101653;-81
2024/02/20 02:43:31;;;;;;;8.95;6.00;;;;;;;9.64;72.37;100570.59;5049291;27;101156;-82
2024/02/20 02:45:56;;;;;;;12.60;6.82;;;;;;;9.78;72.05;100577.22;5094870;27;96702;-82
2024/02/20 02:48:22;;;;;;;11.07;6.47;;;;;;;9.79;71.96;100574.56;5081983;27;96869;-81
2024/02/20 02:50:47;;;;;;;15.30;5.90;;;;;;;9.75;72.52;100565.06;5063944;27;100720;-82
2024/02/20 02:53:13;;;;;;;11.38;6.18;;;;;;;9.73;72.13;100572.09;5076455;27;97979;-81
2024/02/20 02:55:38;;;;;;;12.95;6.93;;;;;;;9.75;72.69;100575.56;5068336;27;97323;-81
2024/02/20 02:58:05;;;;;;;12.30;6.90;;;;;;;9.77;72.25;100578.13;5078061;27;97015;-82
2024/02/20 03:00:31;;;;;;;11.40;6.82;;;;;;;9.74;72.70;100573.81;5063638;27;100297;-81
2024/02/20 03:02:57;;;;;;;9.50;5.97;;;;;;;9.75;72.68;100570.31;5063886;27;98037;-81
2024/02/20 03:05:23;;;;;;;8.70;6.28;;;;;;;9.80;72.52;100573.66;5047068;27;96713;-81
2024/02/20 03:07:49;;;;;;;9.88;6.78;;;;;;;9.86;72.58;100572.63;5081100;27;96922;-83
2024/02/20 03:10:15;;;;;;;11.18;6.10;;;;;;;9.85;72.38;100558.66;5063122;27;101355;-81
2024/02/20 03:12:40;;;;;;;11.82;6.53;;;;;;;9.79;72.58;100565.84;5046115;27;101058;-81
2024/02/20 03:15:06;;;;;;;8.43;6.38;;;;;;;9.80;72.50;100568.41;5066446;27;96707;-81
2024/02/20 03:17:32;;;;;;;9.57;6.45;;;;;;;9.80;72.28;100571.03;5043355;27;96796;-81
2024/02/20 03:19:58;;;;;;;8.80;6.43;;;;;;;9.81;72.29;100567.53;5057474;27;101237;-82
2024/02/20 03:22:23;;;;;;;13.85;6.80;;;;;;;9.83;72.25;100573.59;5080761;27;97600;-82
2024/02/20 03:24:49;;;;;;;8.75;6.00;;;;;;;9.82;72.57;100569.22;5063865;27;96708;-82
2024/02/20 03:27:14;;;;;;;10.77;6.68;;;;;;;9.84;72.66;100562.19;5063895;27;97028;-85
2024/02/20 03:29:42;;;;;;;14.02;6.20;;;;;;;9.82;72.43;100560.50;5062278;27;100546;-82
2024/02/20 03:32:08;;;;;;;8.57;6.68;;;;;;;9.85;72.18;100560.44;5048634;27;101367;-83
2024/02/20 03:34:34;;;;;;;8.90;6.15;;;;;;;9.90;72.29;100566.41;5054843;27;97598;-81
2024/02/20 03:36:59;;;;;;;8.57;6.55;;;;;;;9.83;72.36;100551.72;5073936;27;97998;-83
2024/02/20 03:39:25;;;;;;;8.43;6.28;;;;;;;9.89;72.46;100565.56;5061424;27;101313;-81
2024/02/20 03:41:50;;;;;;;13.52;6.60;;;;;;;9.94;72.02;100566.25;5062442;27;101040;-82
2024/02/20 03:44:16;;;;;;;11.70;6.25;;;;;;;9.78;72.50;100566.75;5079545;27;96772;-81
2024/02/20 03:46:41;;;;;;;11.38;6.47;;;;;;;9.79;72.45;100563.22;5036722;27;97108;-82
2024/02/20 03:49:07;;;;;;;11.02;6.32;;;;;;;9.82;72.35;100568.38;5061188;27;98535;-83
2024/02/20 03:51:33;;;;;;;8.40;6.22;;;;;;;9.63;73.25;100568.88;5042731;27;101897;-83
2024/02/20 03:53:59;;;;;;;11.57;7.07;;;;;;;9.72;73.02;100571.25;5057763;27;96793;-83
2024/02/20 03:56:25;;;;;;;8.98;6.43;;;;;;;9.75;72.32;100576.41;5075289;27;96904;-84
2024/02/20 03:58:51;;;;;;;9.07;6.05;;;;;;;9.77;72.96;100576.34;5059750;27;98044;-84
2024/02/20 04:01:16;;;;;;;10.38;6.32;;;;;;;9.77;72.37;100575.50;5074889;27;101433;-83
2024/02/20 04:03:42;;;;;;;8.50;6.07;;;;;;;9.82;72.40;100576.25;5060061;27;97291;-82
2024/02/20 04:06:08;;;;;;;13.85;7.28;;;;;;;9.85;72.43;100576.16;5040296;27;96881;-82
2024/02/20 04:08:34;;;;;;;8.63;5.13;;;;;;;9.80;72.90;100580.66;5075680;27;98271;-83
2024/02/20 04:11:00;;;;;;;10.15;6.32;;;;;;;9.73;72.97;100578.19;5031793;27;101264;-82
2024/02/20 04:13:26;;;;;;;10.75;6.18;;;;;;;9.75;73.17;100583.41;5052762;27;97259;-83
2024/02/20 04:15:52;;;;;;;8.50;5.38;;;;;;;9.66;73.35;100581.03;5042873;27;96858;-82
2024/02/20 04:18:17;;;;;;;8.93;5.80;;;;;;;9.68;73.68;100582.69;5039285;27;101628;-82
2024/02/20 04:20:43;;;;;;;9.65;5.75;;;;;;;9.78;73.11;100582.47;5051549;27;101705;-82
2024/02/20 04:23:08;;;;;;;8.05;5.95;;;;;;;9.69;73.65;100583.59;5058978;27;97115;-82
2024/02/20 04:25:34;;;;;;;11.20;6.30;;;;;;;9.73;73.87;100578.19;5074138;27;97490;-81
2024/02/20 04:27:59;;;;;;;9.90;6.28;;;;;;;9.69;73.92;100580.97;5051898;27;100216;-83
2024/02/20 04:30:26;;;;;;;10.82;5.93;;;;;;;9.63;74.16;100578.47;5072738;27;98490;-82
2024/02/20 04:32:51;;;;;;;10.07;6.05;;;;;;;9.72;74.78;100589.59;5075616;27;96686;-82
2024/02/20 04:35:17;;;;;;;11.00;6.30;;;;;;;9.69;74.83;100589.69;5042448;27;97434;-81
2024/02/20 04:37:44;;;;;;;9.75;5.72;;;;;;;9.79;74.64;100592.06;5073292;27;97990;-82
2024/02/20 04:40:10;;;;;;;10.52;6.57;;;;;;;9.74;75.19;100593.03;5058991;27;101299;-81
2024/02/20 04:42:35;;;;;;;10.20;6.85;;;;;;;9.72;75.15;100593.97;5060465;27;96764;-81
2024/02/20 04:45:01;;;;;;;7.47;5.75;;;;;;;9.70;75.42;100595.78;5062903;27;96788;-81
2024/02/20 04:47:28;;;;;;;11.00;5.75;;;;;;;9.68;75.62;100593.19;5042930;27;101185;-81
2024/02/20 04:49:53;;;;;;;9.95;5.57;;;;;;;9.66;75.34;100586.28;5057558;27;101452;-81
2024/02/20 04:52:19;;;;;;;8.57;6.28;;;;;;;9.60;75.81;100596.91;5053965;27;97060;-81
2024/02/20 04:54:44;;;;;;;8.57;5.80;;;;;;;9.60;75.25;100591.66;5069152;27;97018;-84
2024/02/20 04:57:10;;;;;;;9.40;6.35;;;;;;;9.62;76.06;100589.88;5060073;27;97971;-82
2024/02/20 04:59:36;;;;;;;11.85;7.18;;;;;;;9.62;76.07;100595.09;5060993;27;101508;-81
2024/02/20 05:02:02;;;;;;;9.25;6.47;;;;;;;9.65;75.85;100590.63;5071922;27;96788;-81
2024/02/20 05:04:27;;;;;;;9.55;6.93;;;;;;;9.64;75.62;100590.69;5043475;27;96791;-83
2024/02/20 05:06:53;;;;;;;10.70;7.05;;;;;;;9.59;76.19;100588.19;5059760;27;101084;-83
2024/02/20 05:09:19;;;;;;;8.30;6.90;;;;;;;9.67;76.32;100598.47;5061669;27;101257;-82
2024/02/20 05:11:45;;;;;;;10.20;6.53;;;;;;;9.62;75.88;100598.59;5064526;27;96827;-83
2024/02/20 05:14:10;;;;;;;11.20;7.13;;;;;;;9.66;76.21;100591.53;5044655;27;96883;-84
2024/02/20 05:16:36;;;;;;;9.88;6.28;;;;;;;9.69;76.16;100599.31;5041108;27;101516;-80
2024/02/20 05:19:01;;;;;;;8.85;6.50;;;;;;;9.80;75.65;100596.38;5038766;27;101869;-81
2024/02/20 05:21:27;;;;;;;11.10;7.47;;;;;;;9.75;75.88;100600.00;5074139;27;97068;-81
2024/02/20 05:23:52;;;;;;;11.25;6.85;;;;;;;9.68;76.02;100600.19;5076317;27;96890;-81
2024/02/20 05:26:18;;;;;;;10.18;7.40;;;;;;;9.68;75.80;100597.56;5061470;27;101244;-83
2024/02/20 05:28:43;;;;;;;9.82;6.88;;;;;;;9.67;76.15;100601.09;5062336;27;101239;-81
2024/02/20 05:34:33;;;;;;;9.68;6.82;;;;;;;9.65;75.82;100606.38;5057887;27;97059;-84
2024/02/20 05:36:58;;;;;;;9.10;6.95;;;;;;;9.65;75.98;100611.59;5083055;27;101018;-83
2024/02/20 05:39:25;;;;;;;7.88;6.35;;;;;;;9.65;76.18;100597.66;5058750;27;97822;-81
2024/02/20 05:41:50;;;;;;;11.05;7.03;;;;;;;9.70;76.05;100603.63;5054606;27;96700;-84
2024/02/20 05:44:16;;;;;;;9.73;6.75;;;;;;;9.63;75.73;100602.06;5058141;27;96824;-79
2024/02/20 05:46:41;;;;;;;10.88;7.18;;;;;;;9.59;76.32;100608.28;5054961;27;99457;-85
2024/02/20 05:49:07;;;;;;;9.57;6.57;;;;;;;9.67;76.13;100604.56;5057689;27;101212;-83
2024/02/20 05:51:33;;;;;;;10.70;7.90;;;;;;;9.64;76.08;100603.81;5055403;27;96729;-81
2024/02/20 05:53:59;;;;;;;9.18;6.82;;;;;;;9.66;75.57;100610.72;5074683;27;96770;-85
2024/02/20 05:56:25;;;;;;;10.95;7.45;;;;;;;9.65;76.19;100610.75;5075984;27;97972;-85
2024/02/20 05:58:51;;;;;;;10.95;7.32;;;;;;;9.65;75.71;100614.22;5039824;27;100090;-84
2024/02/20 06:01:17;;;;;;;8.98;7.55;;;;;;;9.68;75.98;100618.53;5053716;27;96773;-78
2024/02/20 06:03:43;;;;;;;13.98;7.95;;;;;;;9.72;75.30;100615.81;5060273;27;96938;-78
2024/02/20 06:06:09;;;;;;;10.32;7.10;;;;;;;9.65;76.05;100619.47;5043805;27;101497;-82
2024/02/20 06:08:36;;;;;;;8.60;7.07;;;;;;;9.61;75.74;100614.38;5071559;27;97888;-75
2024/02/20 06:11:01;;;;;;;11.15;6.93;;;;;;;9.67;75.75;100616.81;5048695;27;96844;-77
2024/02/20 06:13:27;;;;;;;10.10;8.00;;;;;;;9.69;76.03;100617.66;5057854;27;96928;-79
2024/02/20 06:15:53;;;;;;;12.18;7.60;;;;;;;9.77;75.93;100622.69;5057515;27;100986;-81
2024/02/20 06:18:18;;;;;;;10.77;7.60;;;;;;;9.68;76.16;100629.03;5055792;27;97763;-79
2024/02/20 06:20:46;;;;;;;12.95;7.88;;;;;;;9.67;75.82;100622.94;5074471;27;96853;-79
2024/02/20 06:23:12;;;;;;;9.05;7.68;;;;;;;9.72;75.80;100639.41;5078402;27;96855;-81
2024/02/20 06:25:41;;;;;;;10.82;7.57;;;;;;;9.65;75.93;100635.19;5043535;27;101386;-81
2024/02/20 06:28:07;;;;;;;14.25;8.68;;;;;;;9.71;75.35;100642.06;5049694;27;97356;-81
2024/02/20 06:30:33;;;;;;;9.30;7.15;;;;;;;9.70;76.00;100638.56;5060741;27;96878;-79
2024/02/20 06:32:58;;;;;;;9.90;7.45;;;;;;;9.71;75.55;100636.81;5075072;27;97060;-79
2024/02/20 06:35:24;;;;;;;8.50;6.97;;;;;;;9.77;75.75;100648.91;5057400;27;97478;-80
2024/02/20 06:37:49;;;;;;;11.18;7.80;;;;;;;9.70;75.66;100643.81;5047250;27;98351;-82
2024/02/20 06:40:15;;;;;;;13.10;8.50;;;;;;;9.68;75.82;100648.22;5060869;27;96730;-82
2024/02/20 06:42:41;;;;;;;10.60;8.07;;;;;;;9.70;75.60;100648.19;5040362;27;98264;-81
2024/02/20 06:45:06;;;;;;;14.43;9.00;;;;;;;9.72;75.74;100659.53;5050865;27;100549;-83
2024/02/20 06:47:32;;;;;;;11.70;8.38;;;;;;;9.73;75.94;100654.22;5059665;27;101056;-82
2024/02/20 06:49:57;;;;;;;12.93;8.18;;;;;;;9.91;77.92;100655.50;5043992;27;97151;-86
2024/02/20 06:52:23;;;;;;;27.90;9.90;;;;;;;9.92;77.28;100657.25;5062939;27;96752;-83
2024/02/20 06:54:49;;;;;;;12.43;8.20;;;;;;;9.95;75.99;100653.69;5080105;27;97629;-79
2024/02/20 06:57:14;;;;;;;17.95;8.48;;;;;;;9.88;76.00;100655.59;5076269;27;98069;-79
2024/02/20 06:59:40;;;;;;;11.63;9.32;;;;;;;9.96;75.39;100666.75;5059580;27;96743;-78
2024/02/20 07:02:05;;;;;;;14.23;8.73;;;;;;;9.98;75.46;100662.34;5076790;27;97637;-76
2024/02/20 07:04:31;;;;;;;16.63;9.38;;;;;;;9.98;75.07;100666.72;5076209;27;97517;-75
2024/02/20 07:06:57;;;;;;;14.63;8.30;;;;;;;10.04;75.00;100671.81;5062646;27;98334;-77
2024/02/20 07:09:22;;;;;;;14.75;9.30;;;;;;;10.06;74.67;100672.59;5039503;27;96867;-75
2024/02/20 07:11:48;;;;;;;13.02;8.80;;;;;;;10.01;74.87;100673.66;5049997;27;96951;-76
2024/02/20 07:14:15;;;;;;;13.27;9.38;;;;;;;9.97;75.14;100675.47;5051870;27;97562;-74
2024/02/20 07:16:44;;;;;;;11.20;9.02;;;;;;;10.09;74.75;100671.66;5053029;27;97520;-76
2024/02/20 07:19:13;;;;;;;11.10;8.90;;;;;;;9.97;74.51;100675.47;5072446;27;97015;-76
2024/02/20 07:21:38;;;;;;;15.13;8.65;;;;;;;10.06;74.15;100679.63;5068972;27;97258;-75
2024/02/20 07:24:04;;;;;;;10.70;9.02;;;;;;;10.06;74.41;100690.97;5054339;27;101552;-74
2024/02/20 07:26:30;;;;;;;10.50;8.48;;;;;;;10.01;74.18;100681.53;5069093;27;97478;-74
2024/02/20 07:28:56;;;;;;;14.27;9.68;;;;;;;10.09;74.37;100687.41;5037878;27;97083;-74
2024/02/20 07:31:25;;;;;;;11.23;8.85;;;;;;;10.12;74.28;100695.19;5070004;27;98567;-74
2024/02/20 07:33:52;;;;;;;11.57;9.00;;;;;;;10.12;73.76;100693.47;5055161;27;101387;-74
2024/02/20 07:36:17;;;;;;;17.25;9.45;;;;;;;10.13;73.93;100699.56;5055246;27;101519;-74
2024/02/20 07:38:43;;;;;;;11.82;9.27;;;;;;;10.11;73.96;100702.22;5074413;27;97290;-74
2024/02/20 07:41:09;;;;;;;15.60;10.00;;;;;;;10.11;74.19;100696.97;5058167;27;97051;-75
2024/02/20 07:43:36;;;;;;;15.50;9.65;;;;;;;10.12;73.81;100703.94;5067822;27;96745;-79
2024/02/20 07:46:02;;;;;;;16.85;10.15;;;;;;;10.27;73.56;100692.22;5059302;27;101467;-81
2024/02/20 07:48:27;;;;;;;9.27;7.70;;;;;;;10.37;73.19;100691.06;5055871;27;96690;-79
2024/02/20 07:50:53;;;;;;;14.43;9.50;;;;;;;10.37;72.76;100695.44;5089600;27;96836;-79
2024/02/20 07:53:19;;;;;;;14.25;9.15;;;;;;;10.31;73.41;100693.84;5055829;27;97919;-79
2024/02/20 07:55:44;;;;;;;10.48;8.57;;;;;;;10.40;73.06;100700.59;5038739;27;101239;-84
2024/02/20 07:58:10;;;;;;;12.93;8.52;;;;;;;10.47;72.56;100699.56;5037174;27;96951;-78
2024/02/20 08:00:36;;;;;;;11.93;7.97;;;;;;;10.47;72.82;100693.41;5068079;27;96838;-79
2024/02/20 08:03:02;;;;;;;10.48;7.75;;;;;;;10.51;72.58;100700.31;5039750;27;101877;-81
2024/02/20 08:05:27;;;;;;;10.40;7.35;;;;;;;10.51;72.03;100705.56;5053829;27;97860;-79
2024/02/20 08:07:54;;;;;;;10.07;7.40;;;;;;;10.55;72.17;100699.31;5052858;27;96969;-77
2024/02/20 08:10:19;;;;;;;12.98;7.63;;;;;;;10.54;72.06;100700.22;5058803;27;96846;-78
2024/02/20 08:12:45;;;;;;;11.40;7.88;;;;;;;10.45;71.80;100693.47;5057890;27;101354;-80
2024/02/20 08:15:11;;;;;;;10.93;7.30;;;;;;;10.57;71.79;100705.41;5054322;27;101379;-79
2024/02/20 08:17:36;;;;;;;9.85;7.40;;;;;;;10.48;71.99;100703.88;5067150;27;97229;-80
2024/02/20 08:20:06;;;;;;;9.25;7.55;;;;;;;10.46;71.94;100710.06;5057920;27;96990;-79
2024/02/20 08:22:31;;;;;;;11.77;7.28;;;;;;;10.47;71.93;100707.44;5054732;27;101733;-81
2024/02/20 08:24:57;;;;;;;11.05;8.00;;;;;;;10.53;71.90;100702.00;5047254;27;101299;-81
2024/02/20 08:27:23;;;;;;;14.38;7.95;;;;;;;10.49;72.08;100697.72;5058923;27;98111;-76
2024/02/20 08:29:49;;;;;;;10.80;7.55;;;;;;;10.56;71.71;100704.53;5013692;27;96878;-76
2024/02/20 08:32:14;;;;;;;12.30;7.85;;;;;;;10.60;71.20;100702.69;5034836;27;97638;-76
2024/02/20 08:34:40;;;;;;;11.75;7.78;;;;;;;10.56;71.49;100703.66;5013315;27;100851;-77
2024/02/20 08:37:06;;;;;;;11.73;7.78;;;;;;;10.40;71.80;100706.72;5051375;27;96950;-78
2024/02/20 08:39:31;;;;;;;11.25;7.53;;;;;;;10.48;71.64;100706.50;5034924;27;96838;-77
2024/02/20 08:41:57;;;;;;;15.77;8.50;;;;;;;10.51;71.54;100703.81;5036997;27;98000;-83
2024/02/20 08:44:26;;;;;;;10.63;8.50;;;;;;;10.43;71.59;100697.91;5034238;27;101486;-80
2024/02/20 08:46:51;;;;;;;13.60;8.65;;;;;;;10.46;71.35;100715.31;5016646;27;97226;-80
2024/02/20 08:49:17;;;;;;;9.85;7.63;;;;;;;10.37;71.77;100705.94;5037160;27;96789;-82
2024/02/20 08:51:43;;;;;;;10.93;7.72;;;;;;;10.43;71.40;100711.88;5053522;27;101286;-76
2024/02/20 08:54:08;;;;;;;11.30;8.32;;;;;;;10.49;71.38;100704.75;5053951;27;101588;-83
2024/02/20 08:56:34;;;;;;;10.43;8.02;;;;;;;10.40;71.37;100709.34;5044240;27;97666;-78
2024/02/20 08:59:00;;;;;;;10.82;7.82;;;;;;;10.49;71.56;100710.84;5067831;27;96888;-81
2024/02/20 09:01:26;;;;;;;11.48;8.43;;;;;;;10.45;71.37;100705.75;5071041;27;101903;-81
2024/02/20 09:03:54;;;;;;;9.57;7.80;;;;;;;10.46;71.48;100707.44;5043627;27;101487;-83
2024/02/20 09:06:19;;;;;;;10.20;7.75;;;;;;;10.59;71.26;100720.22;5037170;27;97297;-81
2024/02/20 09:08:45;;;;;;;12.45;8.65;;;;;;;10.50;71.47;100714.31;5033997;27;96843;-86
2024/02/20 09:11:11;;;;;;;11.63;8.73;;;;;;;10.52;71.21;100709.91;5034261;27;100596;-84
2024/02/20 09:13:38;;;;;;;11.48;8.40;;;;;;;10.50;71.17;100707.34;5048163;27;99666;-86
2024/02/20 09:16:04;;;;;;;14.00;8.18;;;;;;;10.46;71.26;100712.69;5015403;28;98019;-80
2024/02/20 09:18:36;;;;;;;12.07;7.95;;;;;;;10.57;70.90;100723.78;5054411;27;96863;-78
2024/02/20 09:21:02;;;;;;;12.40;7.90;;;;;;;10.63;71.15;100724.47;5035489;27;101167;-80
2024/02/20 09:23:28;;;;;;;10.00;7.50;;;;;;;10.87;70.71;100722.88;5050403;27;97403;-82
2024/02/20 09:25:54;;;;;;;11.52;8.00;;;;;;;11.02;70.75;100729.47;5068805;27;96811;-78
2024/02/20 09:28:19;;;;;;;11.00;7.88;;;;;;;11.12;70.06;100726.59;5049239;27;96861;-77
2024/02/20 09:30:45;;;;;;;12.18;7.30;;;;;;;11.09;69.82;100731.03;5055219;27;100039;-76
2024/02/20 09:33:13;;;;;;;8.77;6.55;;;;;;;10.96;69.36;100734.91;5054022;27;97538;-76
2024/02/20 09:35:39;;;;;;;8.48;5.70;;;;;;;10.93;69.02;100732.34;5046949;27;96765;-76
2024/02/20 09:38:04;;;;;;;6.20;5.32;;;;;;;10.87;69.00;100729.91;5055065;27;96802;-76
2024/02/20 09:40:30;;;;;;;6.90;4.68;;;;;;;10.79;69.00;100732.78;5055735;27;97845;-77
2024/02/20 09:42:59;;;;;;;6.05;5.45;;;;;;;10.83;68.79;100723.91;5044834;27;101109;-76
2024/02/20 09:45:25;;;;;;;8.60;5.18;;;;;;;10.76;68.32;100730.25;5040378;27;97337;-76
2024/02/20 09:47:51;;;;;;;4.55;3.72;;;;;;;10.89;67.89;100733.38;5056561;27;97633;-76
2024/02/20 09:50:16;;;;;;;6.38;4.00;;;;;;;10.91;67.78;100734.19;5058054;27;97553;-76
2024/02/20 09:52:47;;;;;;;5.15;3.72;;;;;;;10.96;68.11;100736.66;5054376;27;97469;-77
2024/02/20 09:55:15;;;;;;;5.10;4.30;;;;;;;10.95;67.93;100730.56;5072502;27;97155;-75
2024/02/20 09:57:41;;;;;;;5.80;3.97;;;;;;;10.82;67.62;100735.31;5055048;27;97974;-76
2024/02/20 10:00:08;;;;;;;5.93;4.13;;;;;;;10.98;67.93;100740.97;5047183;27;101909;-76
2024/02/20 10:02:38;;;;;;;8.65;4.22;;;;;;;11.19;67.19;100734.22;5053706;27;97758;-77
2024/02/20 10:05:06;;;;;;;4.55;3.30;;;;;;;11.22;67.27;100731.50;5044011;27;97383;-76
2024/02/20 10:07:38;;;;;;;5.18;3.10;;;;;;;11.30;67.02;100732.13;5045070;27;97356;-77
2024/02/20 10:10:08;;;;;;;3.72;2.60;;;;;;;11.19;67.09;100746.50;5054697;27;98105;-77
2024/02/20 10:12:36;;;;;;;2.65;2.13;;;;;;;11.08;68.19;100738.94;5055496;27;98397;-76
2024/02/20 10:15:09;;;;;;;1.95;1.75;;;;;;;10.88;68.99;100748.28;5043664;27;97001;-76
2024/02/20 10:17:35;;;;;;;2.35;1.50;;;;;;;10.97;69.12;100748.91;5065085;27;96942;-76
2024/02/20 10:20:19;;;;;;;3.72;1.77;;;;;;;11.18;69.13;100739.53;5043666;27;101147;-75
2024/02/20 11:12:07;;;;;;;4.03;1.38;;;;;;;11.84;63.15;100719.06;6215300;22;1396628;-79
2024/02/20 11:15:36;;;;;;;3.60;1.42;;;;;;;11.55;63.62;100732.25;6142738;22;96937;-80
2024/02/20 11:18:34;;;;;;;2.97;1.40;;;;;;;11.48;63.94;100727.22;6088024;22;100687;-80
2024/02/20 11:21:30;;;;;;;3.88;1.60;;;;;;;11.49;63.50;100721.03;6112377;22;95847;-82
2024/02/20 12:28:59;;;;;;;2.00;1.60;;;;;;;10.99;65.09;100705.06;6241147;22;97324;-75
2024/02/20 12:31:27;;;;;;;1.92;1.60;;;;;;;10.90;65.45;100705.34;6237549;22;97317;-73
2024/02/20 12:33:52;;;;;;;1.45;1.30;;;;;;;10.94;66.12;100715.72;6207439;22;97583;-76
2024/02/20 12:36:19;;;;;;;3.00;1.75;;;;;;;10.99;65.89;100702.44;6185081;22;97268;-74
2024/02/20 12:38:44;;;;;;;1.98;1.40;;;;;;;11.09;66.33;100709.16;6209676;22;97360;-74
2024/02/20 12:41:10;;;;;;;2.30;1.70;;;;;;;11.23;65.84;100709.59;6206461;22;97880;-75
2024/02/20 12:43:36;;;;;;;5.15;1.77;;;;;;;11.38;65.39;100717.91;6208868;22;97738;-74
2024/02/20 12:46:02;;;;;;;1.98;1.33;;;;;;;11.26;65.40;100706.88;6182030;22;97368;-77
2024/02/20 12:48:27;;;;;;;2.22;1.13;;;;;;;11.25;64.09;100697.25;6211399;22;97244;-76
2024/02/20 12:50:53;;;;;;;2.58;1.08;;;;;;;11.12;63.47;100697.69;6189524;22;101438;-74
2024/02/20 12:53:19;;;;;;;1.02;0.93;;;;;;;11.23;63.67;100701.72;6213635;22;97764;-73
2024/02/20 12:55:45;;;;;;;1.13;1.00;;;;;;;11.18;63.50;100693.09;6165553;22;96709;-74
2024/02/20 12:58:10;;;;;;;3.22;0.90;;;;;;;11.12;62.75;100693.28;6216583;22;96798;-75
2024/02/20 13:00:37;;;;;;;2.03;1.25;;;;;;;11.22;63.07;100699.13;6215049;22;98062;-74
2024/02/20 13:03:04;;;;;;;1.15;1.05;;;;;;;11.33;63.17;100697.00;6190542;22;97286;-74
2024/02/20 13:05:31;;;;;;;1.42;0.98;;;;;;;11.47;63.49;100699.22;6193366;22;97114;-74
2024/02/20 13:08:01;;;;;;;1.35;1.00;;;;;;;11.62;63.44;100695.25;6167541;22;97329;-74
2024/02/20 13:10:27;;;;;;;1.42;0.80;;;;;;;11.73;63.74;100701.88;6190972;22;100853;-74
2024/02/20 13:13:00;;;;;;;4.75;1.02;;;;;;;11.76;64.65;100698.28;6216486;22;97285;-75
2024/02/20 13:15:26;;;;;;;1.92;1.02;;;;;;;11.65;63.67;100703.03;6187847;22;97312;-76
2024/02/20 13:17:56;;;;;;;1.45;0.98;;;;;;;11.66;64.41;100710.84;6216104;22;96840;-74